sensor_id;sensor_type;location;lat;lon;timestamp;P1;durP1;ratioP1;P2;durP2;ratioP2
9974;SDS011;5028;50.974;4.968;2023-05-16T00:00:04;12.40;;;3.77;;
9974;SDS011;5028;50.974;4.968;2023-05-16T00:02:35;14.47;;;3.73;;
9974;SDS011;5028;50.974;4.968;2023-05-16T00:05:06;11.87;;;3.03;;
9974;SDS011;5028;50.974;4.968;2023-05-16T00:07:36;11.70;;;3.63;;
9974;SDS011;5028;50.974;4.968;2023-05-16T00:10:05;11.13;;;3.30;;
9974;SDS011;5028;50.974;4.968;2023-05-16T00:12:37;13.93;;;3.70;;
9974;SDS011;5028;50.974;4.968;2023-05-16T00:15:08;12.90;;;3.43;;
9974;SDS011;5028;50.974;4.968;2023-05-16T00:17:39;14.60;;;3.27;;
9974;SDS011;5028;50.974;4.968;2023-05-16T00:20:09;8.57;;;2.00;;
9974;SDS011;5028;50.974;4.968;2023-05-16T00:22:39;15.33;;;3.67;;
9974;SDS011;5028;50.974;4.968;2023-05-16T00:25:08;13.17;;;3.27;;
9974;SDS011;5028;50.974;4.968;2023-05-16T00:27:39;9.67;;;3.07;;
9974;SDS011;5028;50.974;4.968;2023-05-16T00:30:08;12.57;;;3.47;;
9974;SDS011;5028;50.974;4.968;2023-05-16T00:32:38;13.00;;;4.00;;
9974;SDS011;5028;50.974;4.968;2023-05-16T00:35:07;13.20;;;3.47;;
9974;SDS011;5028;50.974;4.968;2023-05-16T00:37:38;11.17;;;3.63;;
9974;SDS011;5028;50.974;4.968;2023-05-16T00:40:07;15.63;;;3.70;;
9974;SDS011;5028;50.974;4.968;2023-05-16T00:42:38;13.00;;;3.20;;
9974;SDS011;5028;50.974;4.968;2023-05-16T00:45:07;13.90;;;3.57;;
9974;SDS011;5028;50.974;4.968;2023-05-16T00:47:36;11.03;;;2.73;;
9974;SDS011;5028;50.974;4.968;2023-05-16T00:50:06;16.17;;;3.30;;
9974;SDS011;5028;50.974;4.968;2023-05-16T00:52:35;11.20;;;3.13;;
9974;SDS011;5028;50.974;4.968;2023-05-16T00:55:04;8.53;;;2.80;;
9974;SDS011;5028;50.974;4.968;2023-05-16T00:57:36;11.43;;;2.63;;
9974;SDS011;5028;50.974;4.968;2023-05-16T01:00:11;10.80;;;2.80;;
9974;SDS011;5028;50.974;4.968;2023-05-16T01:02:45;10.43;;;2.97;;
9974;SDS011;5028;50.974;4.968;2023-05-16T01:05:15;14.27;;;3.37;;
9974;SDS011;5028;50.974;4.968;2023-05-16T01:07:43;12.27;;;3.43;;
9974;SDS011;5028;50.974;4.968;2023-05-16T01:10:12;16.23;;;3.63;;
9974;SDS011;5028;50.974;4.968;2023-05-16T01:12:44;14.30;;;3.57;;
9974;SDS011;5028;50.974;4.968;2023-05-16T01:15:23;9.70;;;3.13;;
9974;SDS011;5028;50.974;4.968;2023-05-16T01:17:56;15.30;;;3.63;;
9974;SDS011;5028;50.974;4.968;2023-05-16T01:20:32;15.37;;;3.13;;
9974;SDS011;5028;50.974;4.968;2023-05-16T01:23:16;10.17;;;2.80;;
9974;SDS011;5028;50.974;4.968;2023-05-16T01:25:55;15.37;;;4.13;;
9974;SDS011;5028;50.974;4.968;2023-05-16T01:28:30;10.07;;;2.90;;
9974;SDS011;5028;50.974;4.968;2023-05-16T01:31:01;14.67;;;3.33;;
9974;SDS011;5028;50.974;4.968;2023-05-16T01:33:30;15.47;;;3.97;;
9974;SDS011;5028;50.974;4.968;2023-05-16T01:36:01;12.73;;;3.43;;
9974;SDS011;5028;50.974;4.968;2023-05-16T01:38:41;16.13;;;3.40;;
9974;SDS011;5028;50.974;4.968;2023-05-16T01:41:17;17.20;;;3.50;;
9974;SDS011;5028;50.974;4.968;2023-05-16T01:43:54;17.60;;;4.40;;
9974;SDS011;5028;50.974;4.968;2023-05-16T01:46:30;13.87;;;4.00;;
9974;SDS011;5028;50.974;4.968;2023-05-16T01:49:05;16.23;;;3.90;;
9974;SDS011;5028;50.974;4.968;2023-05-16T01:51:44;14.13;;;3.50;;
9974;SDS011;5028;50.974;4.968;2023-05-16T01:54:18;11.40;;;2.90;;
9974;SDS011;5028;50.974;4.968;2023-05-16T01:56:52;9.57;;;3.10;;
9974;SDS011;5028;50.974;4.968;2023-05-16T01:59:24;12.77;;;3.60;;
9974;SDS011;5028;50.974;4.968;2023-05-16T02:01:55;12.27;;;4.00;;
9974;SDS011;5028;50.974;4.968;2023-05-16T02:04:25;14.27;;;3.53;;
9974;SDS011;5028;50.974;4.968;2023-05-16T02:06:54;19.50;;;3.67;;
9974;SDS011;5028;50.974;4.968;2023-05-16T02:09:26;14.20;;;3.13;;
9974;SDS011;5028;50.974;4.968;2023-05-16T02:11:54;15.07;;;3.73;;
9974;SDS011;5028;50.974;4.968;2023-05-16T02:14:25;11.23;;;3.20;;
9974;SDS011;5028;50.974;4.968;2023-05-16T02:16:53;12.30;;;3.23;;
9974;SDS011;5028;50.974;4.968;2023-05-16T02:19:23;15.33;;;3.43;;
9974;SDS011;5028;50.974;4.968;2023-05-16T02:21:51;14.93;;;3.67;;
9974;SDS011;5028;50.974;4.968;2023-05-16T02:24:21;12.77;;;3.80;;
9974;SDS011;5028;50.974;4.968;2023-05-16T02:26:49;12.53;;;4.10;;
9974;SDS011;5028;50.974;4.968;2023-05-16T02:29:18;12.13;;;3.30;;
9974;SDS011;5028;50.974;4.968;2023-05-16T02:31:48;14.77;;;3.70;;
9974;SDS011;5028;50.974;4.968;2023-05-16T02:34:17;11.37;;;3.17;;
9974;SDS011;5028;50.974;4.968;2023-05-16T02:36:46;14.90;;;3.70;;
9974;SDS011;5028;50.974;4.968;2023-05-16T02:39:14;12.57;;;3.70;;
9974;SDS011;5028;50.974;4.968;2023-05-16T02:41:43;11.73;;;3.30;;
9974;SDS011;5028;50.974;4.968;2023-05-16T02:44:12;16.03;;;3.73;;
9974;SDS011;5028;50.974;4.968;2023-05-16T02:46:41;11.73;;;3.23;;
9974;SDS011;5028;50.974;4.968;2023-05-16T02:49:11;13.67;;;3.37;;
9974;SDS011;5028;50.974;4.968;2023-05-16T02:51:40;17.70;;;3.67;;
9974;SDS011;5028;50.974;4.968;2023-05-16T02:54:09;13.07;;;3.50;;
9974;SDS011;5028;50.974;4.968;2023-05-16T02:56:38;14.23;;;3.40;;
9974;SDS011;5028;50.974;4.968;2023-05-16T02:59:06;17.63;;;3.30;;
9974;SDS011;5028;50.974;4.968;2023-05-16T03:01:37;14.40;;;3.27;;
9974;SDS011;5028;50.974;4.968;2023-05-16T03:04:06;12.33;;;3.40;;
9974;SDS011;5028;50.974;4.968;2023-05-16T03:06:36;12.97;;;3.77;;
9974;SDS011;5028;50.974;4.968;2023-05-16T03:09:05;11.60;;;3.53;;
9974;SDS011;5028;50.974;4.968;2023-05-16T03:11:34;16.30;;;4.03;;
9974;SDS011;5028;50.974;4.968;2023-05-16T03:14:03;11.53;;;3.60;;
9974;SDS011;5028;50.974;4.968;2023-05-16T03:16:32;14.43;;;3.50;;
9974;SDS011;5028;50.974;4.968;2023-05-16T03:19:02;9.30;;;3.40;;
9974;SDS011;5028;50.974;4.968;2023-05-16T03:21:31;15.67;;;4.27;;
9974;SDS011;5028;50.974;4.968;2023-05-16T03:24:01;11.70;;;3.63;;
9974;SDS011;5028;50.974;4.968;2023-05-16T03:26:31;11.63;;;3.17;;
9974;SDS011;5028;50.974;4.968;2023-05-16T03:29:00;11.73;;;3.17;;
9974;SDS011;5028;50.974;4.968;2023-05-16T03:31:29;9.87;;;3.07;;
9974;SDS011;5028;50.974;4.968;2023-05-16T03:33:58;10.40;;;3.80;;
9974;SDS011;5028;50.974;4.968;2023-05-16T03:36:27;15.97;;;4.00;;
9974;SDS011;5028;50.974;4.968;2023-05-16T03:38:57;15.50;;;3.77;;
9974;SDS011;5028;50.974;4.968;2023-05-16T03:41:27;17.50;;;4.00;;
9974;SDS011;5028;50.974;4.968;2023-05-16T03:43:56;12.07;;;3.67;;
9974;SDS011;5028;50.974;4.968;2023-05-16T03:46:25;13.07;;;3.37;;
9974;SDS011;5028;50.974;4.968;2023-05-16T03:48:55;14.13;;;3.27;;
9974;SDS011;5028;50.974;4.968;2023-05-16T03:51:24;14.87;;;3.33;;
9974;SDS011;5028;50.974;4.968;2023-05-16T03:53:53;14.13;;;3.60;;
9974;SDS011;5028;50.974;4.968;2023-05-16T03:56:22;12.80;;;3.40;;
9974;SDS011;5028;50.974;4.968;2023-05-16T03:58:53;14.60;;;3.50;;
9974;SDS011;5028;50.974;4.968;2023-05-16T04:01:23;10.60;;;3.23;;
9974;SDS011;5028;50.974;4.968;2023-05-16T04:03:52;13.53;;;3.53;;
9974;SDS011;5028;50.974;4.968;2023-05-16T04:06:21;15.57;;;3.50;;
9974;SDS011;5028;50.974;4.968;2023-05-16T04:08:50;11.07;;;3.90;;
9974;SDS011;5028;50.974;4.968;2023-05-16T04:11:19;15.53;;;3.20;;
9974;SDS011;5028;50.974;4.968;2023-05-16T04:13:47;13.07;;;3.60;;
9974;SDS011;5028;50.974;4.968;2023-05-16T04:16:18;13.73;;;3.50;;
9974;SDS011;5028;50.974;4.968;2023-05-16T04:18:47;14.47;;;3.63;;
9974;SDS011;5028;50.974;4.968;2023-05-16T04:21:16;11.63;;;3.17;;
9974;SDS011;5028;50.974;4.968;2023-05-16T04:23:45;13.77;;;3.70;;
9974;SDS011;5028;50.974;4.968;2023-05-16T04:26:14;12.20;;;3.83;;
9974;SDS011;5028;50.974;4.968;2023-05-16T04:28:43;15.87;;;3.60;;
9974;SDS011;5028;50.974;4.968;2023-05-16T04:31:12;13.17;;;3.70;;
9974;SDS011;5028;50.974;4.968;2023-05-16T04:33:42;11.90;;;3.47;;
9974;SDS011;5028;50.974;4.968;2023-05-16T04:36:12;15.37;;;3.90;;
9974;SDS011;5028;50.974;4.968;2023-05-16T04:38:41;12.97;;;3.73;;
9974;SDS011;5028;50.974;4.968;2023-05-16T04:41:09;12.23;;;3.23;;
9974;SDS011;5028;50.974;4.968;2023-05-16T04:43:38;16.47;;;3.90;;
9974;SDS011;5028;50.974;4.968;2023-05-16T04:46:07;12.93;;;3.60;;
9974;SDS011;5028;50.974;4.968;2023-05-16T04:48:37;12.63;;;3.73;;
9974;SDS011;5028;50.974;4.968;2023-05-16T04:51:07;10.93;;;3.10;;
9974;SDS011;5028;50.974;4.968;2023-05-16T04:53:37;13.33;;;3.30;;
9974;SDS011;5028;50.974;4.968;2023-05-16T04:56:06;14.33;;;3.80;;
9974;SDS011;5028;50.974;4.968;2023-05-16T04:58:35;10.50;;;3.60;;
9974;SDS011;5028;50.974;4.968;2023-05-16T05:01:07;10.57;;;3.17;;
9974;SDS011;5028;50.974;4.968;2023-05-16T05:03:36;11.00;;;3.47;;
9974;SDS011;5028;50.974;4.968;2023-05-16T05:06:05;10.30;;;3.23;;
9974;SDS011;5028;50.974;4.968;2023-05-16T05:08:35;10.30;;;3.43;;
9974;SDS011;5028;50.974;4.968;2023-05-16T05:11:04;14.40;;;3.43;;
9974;SDS011;5028;50.974;4.968;2023-05-16T05:13:32;10.60;;;2.97;;
9974;SDS011;5028;50.974;4.968;2023-05-16T05:16:01;15.17;;;3.63;;
9974;SDS011;5028;50.974;4.968;2023-05-16T05:18:31;10.27;;;2.60;;
9974;SDS011;5028;50.974;4.968;2023-05-16T05:21:00;12.57;;;3.60;;
9974;SDS011;5028;50.974;4.968;2023-05-16T05:23:29;12.03;;;3.13;;
9974;SDS011;5028;50.974;4.968;2023-05-16T05:26:00;11.13;;;3.20;;
9974;SDS011;5028;50.974;4.968;2023-05-16T05:28:30;13.57;;;4.50;;
9974;SDS011;5028;50.974;4.968;2023-05-16T05:30:59;10.93;;;3.43;;
9974;SDS011;5028;50.974;4.968;2023-05-16T05:33:28;9.87;;;3.63;;
9974;SDS011;5028;50.974;4.968;2023-05-16T05:35:56;13.47;;;2.93;;
9974;SDS011;5028;50.974;4.968;2023-05-16T05:38:28;7.67;;;2.83;;
9974;SDS011;5028;50.974;4.968;2023-05-16T05:40:57;10.43;;;3.57;;
9974;SDS011;5028;50.974;4.968;2023-05-16T05:43:28;8.73;;;2.40;;
9974;SDS011;5028;50.974;4.968;2023-05-16T05:45:56;9.97;;;2.93;;
9974;SDS011;5028;50.974;4.968;2023-05-16T05:48:25;8.97;;;2.90;;
9974;SDS011;5028;50.974;4.968;2023-05-16T05:50:56;11.07;;;2.80;;
9974;SDS011;5028;50.974;4.968;2023-05-16T05:53:24;8.93;;;2.73;;
9974;SDS011;5028;50.974;4.968;2023-05-16T05:55:53;8.80;;;2.50;;
9974;SDS011;5028;50.974;4.968;2023-05-16T05:58:24;11.47;;;3.07;;
9974;SDS011;5028;50.974;4.968;2023-05-16T06:00:53;7.17;;;2.67;;
9974;SDS011;5028;50.974;4.968;2023-05-16T06:03:22;10.97;;;2.70;;
9974;SDS011;5028;50.974;4.968;2023-05-16T06:05:51;9.07;;;2.80;;
9974;SDS011;5028;50.974;4.968;2023-05-16T06:08:21;11.07;;;3.03;;
9974;SDS011;5028;50.974;4.968;2023-05-16T06:10:50;14.83;;;3.37;;
9974;SDS011;5028;50.974;4.968;2023-05-16T06:13:19;8.40;;;2.83;;
9974;SDS011;5028;50.974;4.968;2023-05-16T06:15:50;11.20;;;2.93;;
9974;SDS011;5028;50.974;4.968;2023-05-16T06:18:19;10.83;;;2.87;;
9974;SDS011;5028;50.974;4.968;2023-05-16T06:20:48;10.30;;;2.63;;
9974;SDS011;5028;50.974;4.968;2023-05-16T06:23:17;10.07;;;2.50;;
9974;SDS011;5028;50.974;4.968;2023-05-16T06:25:46;5.43;;;2.00;;
9974;SDS011;5028;50.974;4.968;2023-05-16T06:28:15;11.90;;;2.97;;
9974;SDS011;5028;50.974;4.968;2023-05-16T06:30:44;12.27;;;3.00;;
9974;SDS011;5028;50.974;4.968;2023-05-16T06:33:17;9.53;;;2.77;;
9974;SDS011;5028;50.974;4.968;2023-05-16T06:35:46;8.07;;;2.07;;
9974;SDS011;5028;50.974;4.968;2023-05-16T06:38:16;11.33;;;2.40;;
9974;SDS011;5028;50.974;4.968;2023-05-16T06:40:47;10.60;;;2.37;;
9974;SDS011;5028;50.974;4.968;2023-05-16T06:43:16;9.33;;;2.53;;
9974;SDS011;5028;50.974;4.968;2023-05-16T06:45:45;10.73;;;2.73;;
9974;SDS011;5028;50.974;4.968;2023-05-16T06:48:14;17.60;;;2.53;;
9974;SDS011;5028;50.974;4.968;2023-05-16T06:50:47;7.30;;;2.90;;
9974;SDS011;5028;50.974;4.968;2023-05-16T06:53:16;10.27;;;2.73;;
9974;SDS011;5028;50.974;4.968;2023-05-16T06:55:45;11.07;;;2.73;;
9974;SDS011;5028;50.974;4.968;2023-05-16T06:58:14;8.43;;;2.30;;
9974;SDS011;5028;50.974;4.968;2023-05-16T07:00:43;8.27;;;2.40;;
9974;SDS011;5028;50.974;4.968;2023-05-16T07:03:12;8.37;;;2.70;;
9974;SDS011;5028;50.974;4.968;2023-05-16T07:05:41;10.63;;;2.60;;
9974;SDS011;5028;50.974;4.968;2023-05-16T07:08:11;6.27;;;2.37;;
9974;SDS011;5028;50.974;4.968;2023-05-16T07:10:40;8.40;;;2.00;;
9974;SDS011;5028;50.974;4.968;2023-05-16T07:13:10;11.63;;;2.30;;
9974;SDS011;5028;50.974;4.968;2023-05-16T07:15:39;7.50;;;2.33;;
9974;SDS011;5028;50.974;4.968;2023-05-16T07:18:08;7.10;;;2.10;;
9974;SDS011;5028;50.974;4.968;2023-05-16T07:20:39;8.53;;;2.10;;
9974;SDS011;5028;50.974;4.968;2023-05-16T07:23:08;6.67;;;2.17;;
9974;SDS011;5028;50.974;4.968;2023-05-16T07:25:39;10.07;;;2.17;;
9974;SDS011;5028;50.974;4.968;2023-05-16T07:28:08;5.27;;;1.70;;
9974;SDS011;5028;50.974;4.968;2023-05-16T07:30:38;6.87;;;1.80;;
9974;SDS011;5028;50.974;4.968;2023-05-16T07:33:07;6.30;;;2.03;;
9974;SDS011;5028;50.974;4.968;2023-05-16T07:35:37;6.80;;;2.17;;
9974;SDS011;5028;50.974;4.968;2023-05-16T07:38:07;6.87;;;2.03;;
9974;SDS011;5028;50.974;4.968;2023-05-16T07:40:36;6.07;;;2.30;;
9974;SDS011;5028;50.974;4.968;2023-05-16T07:43:06;6.03;;;2.07;;
9974;SDS011;5028;50.974;4.968;2023-05-16T07:45:35;6.97;;;1.93;;
9974;SDS011;5028;50.974;4.968;2023-05-16T07:48:04;6.83;;;1.90;;
9974;SDS011;5028;50.974;4.968;2023-05-16T07:50:33;4.37;;;1.37;;
9974;SDS011;5028;50.974;4.968;2023-05-16T07:53:02;4.67;;;1.60;;
9974;SDS011;5028;50.974;4.968;2023-05-16T07:55:30;6.30;;;1.73;;
9974;SDS011;5028;50.974;4.968;2023-05-16T07:57:59;5.00;;;1.80;;
9974;SDS011;5028;50.974;4.968;2023-05-16T08:00:30;4.50;;;1.20;;
9974;SDS011;5028;50.974;4.968;2023-05-16T08:02:59;2.20;;;1.37;;
9974;SDS011;5028;50.974;4.968;2023-05-16T08:05:28;4.97;;;1.70;;
9974;SDS011;5028;50.974;4.968;2023-05-16T08:07:57;5.47;;;1.50;;
9974;SDS011;5028;50.974;4.968;2023-05-16T08:10:26;6.03;;;2.10;;
9974;SDS011;5028;50.974;4.968;2023-05-16T08:12:55;5.83;;;2.03;;
9974;SDS011;5028;50.974;4.968;2023-05-16T08:15:26;7.40;;;2.13;;
9974;SDS011;5028;50.974;4.968;2023-05-16T08:17:57;6.13;;;1.77;;
9974;SDS011;5028;50.974;4.968;2023-05-16T08:20:27;6.37;;;1.60;;
9974;SDS011;5028;50.974;4.968;2023-05-16T08:22:56;6.07;;;1.70;;
9974;SDS011;5028;50.974;4.968;2023-05-16T08:25:25;4.80;;;1.90;;
9974;SDS011;5028;50.974;4.968;2023-05-16T08:27:54;5.33;;;1.80;;
9974;SDS011;5028;50.974;4.968;2023-05-16T08:30:24;5.73;;;2.13;;
9974;SDS011;5028;50.974;4.968;2023-05-16T08:32:53;6.77;;;1.83;;
9974;SDS011;5028;50.974;4.968;2023-05-16T08:35:24;7.57;;;1.70;;
9974;SDS011;5028;50.974;4.968;2023-05-16T08:37:53;6.67;;;1.73;;
9974;SDS011;5028;50.974;4.968;2023-05-16T08:40:24;8.80;;;2.17;;
9974;SDS011;5028;50.974;4.968;2023-05-16T08:42:53;4.93;;;1.90;;
9974;SDS011;5028;50.974;4.968;2023-05-16T08:45:22;5.90;;;1.60;;
9974;SDS011;5028;50.974;4.968;2023-05-16T08:47:55;5.07;;;1.67;;
9974;SDS011;5028;50.974;4.968;2023-05-16T08:50:31;4.93;;;1.80;;
9974;SDS011;5028;50.974;4.968;2023-05-16T08:53:00;5.37;;;1.70;;
9974;SDS011;5028;50.974;4.968;2023-05-16T08:55:33;6.47;;;1.77;;
9974;SDS011;5028;50.974;4.968;2023-05-16T08:58:02;6.73;;;2.03;;
9974;SDS011;5028;50.974;4.968;2023-05-16T09:00:31;10.73;;;2.23;;
9974;SDS011;5028;50.974;4.968;2023-05-16T09:03:01;6.10;;;1.70;;
9974;SDS011;5028;50.974;4.968;2023-05-16T09:05:31;5.43;;;1.70;;
9974;SDS011;5028;50.974;4.968;2023-05-16T09:08:00;6.47;;;1.83;;
9974;SDS011;5028;50.974;4.968;2023-05-16T09:10:29;6.90;;;2.00;;
9974;SDS011;5028;50.974;4.968;2023-05-16T09:12:58;6.70;;;1.87;;
9974;SDS011;5028;50.974;4.968;2023-05-16T09:15:30;4.27;;;1.60;;
9974;SDS011;5028;50.974;4.968;2023-05-16T09:18:00;6.20;;;1.50;;
9974;SDS011;5028;50.974;4.968;2023-05-16T09:20:31;4.27;;;1.57;;
9974;SDS011;5028;50.974;4.968;2023-05-16T09:23:00;5.37;;;1.60;;
9974;SDS011;5028;50.974;4.968;2023-05-16T09:25:29;6.20;;;1.60;;
9974;SDS011;5028;50.974;4.968;2023-05-16T09:28:00;5.27;;;1.60;;
9974;SDS011;5028;50.974;4.968;2023-05-16T09:30:30;6.17;;;1.40;;
9974;SDS011;5028;50.974;4.968;2023-05-16T09:33:00;4.70;;;1.80;;
9974;SDS011;5028;50.974;4.968;2023-05-16T09:35:29;4.77;;;1.20;;
9974;SDS011;5028;50.974;4.968;2023-05-16T09:38:13;5.00;;;1.70;;
9974;SDS011;5028;50.974;4.968;2023-05-16T09:40:44;3.93;;;0.90;;
9974;SDS011;5028;50.974;4.968;2023-05-16T09:43:14;4.37;;;1.50;;
9974;SDS011;5028;50.974;4.968;2023-05-16T09:45:44;5.60;;;1.80;;
9974;SDS011;5028;50.974;4.968;2023-05-16T09:48:14;2.43;;;1.10;;
9974;SDS011;5028;50.974;4.968;2023-05-16T09:50:50;6.27;;;1.70;;
9974;SDS011;5028;50.974;4.968;2023-05-16T09:53:26;6.03;;;1.87;;
9974;SDS011;5028;50.974;4.968;2023-05-16T09:55:59;3.67;;;1.30;;
9974;SDS011;5028;50.974;4.968;2023-05-16T09:58:33;4.80;;;1.60;;
9974;SDS011;5028;50.974;4.968;2023-05-16T10:01:03;4.10;;;1.50;;
9974;SDS011;5028;50.974;4.968;2023-05-16T10:03:33;5.90;;;1.37;;
9974;SDS011;5028;50.974;4.968;2023-05-16T10:06:04;5.07;;;1.57;;
9974;SDS011;5028;50.974;4.968;2023-05-16T10:08:34;4.57;;;1.27;;
9974;SDS011;5028;50.974;4.968;2023-05-16T10:11:04;5.53;;;1.77;;
9974;SDS011;5028;50.974;4.968;2023-05-16T10:13:33;5.43;;;1.60;;
9974;SDS011;5028;50.974;4.968;2023-05-16T10:16:05;3.87;;;1.53;;
9974;SDS011;5028;50.974;4.968;2023-05-16T10:18:39;3.17;;;1.43;;
9974;SDS011;5028;50.974;4.968;2023-05-16T10:21:13;2.90;;;1.10;;
9974;SDS011;5028;50.974;4.968;2023-05-16T10:23:43;5.67;;;1.83;;
9974;SDS011;5028;50.974;4.968;2023-05-16T10:26:16;4.07;;;1.37;;
9974;SDS011;5028;50.974;4.968;2023-05-16T10:28:44;2.73;;;1.27;;
9974;SDS011;5028;50.974;4.968;2023-05-16T10:31:14;8.47;;;1.83;;
9974;SDS011;5028;50.974;4.968;2023-05-16T10:33:43;3.57;;;1.00;;
9974;SDS011;5028;50.974;4.968;2023-05-16T10:36:14;3.17;;;1.20;;
9974;SDS011;5028;50.974;4.968;2023-05-16T10:38:44;4.17;;;1.37;;
9974;SDS011;5028;50.974;4.968;2023-05-16T10:41:14;5.30;;;1.60;;
9974;SDS011;5028;50.974;4.968;2023-05-16T10:43:46;2.77;;;1.30;;
9974;SDS011;5028;50.974;4.968;2023-05-16T10:46:23;4.47;;;1.33;;
9974;SDS011;5028;50.974;4.968;2023-05-16T10:48:55;3.13;;;1.20;;
9974;SDS011;5028;50.974;4.968;2023-05-16T10:51:34;2.97;;;1.33;;
9974;SDS011;5028;50.974;4.968;2023-05-16T10:54:04;3.33;;;1.30;;
9974;SDS011;5028;50.974;4.968;2023-05-16T10:56:36;4.00;;;1.27;;
9974;SDS011;5028;50.974;4.968;2023-05-16T10:59:20;2.77;;;1.73;;
9974;SDS011;5028;50.974;4.968;2023-05-16T11:01:52;2.73;;;1.10;;
9974;SDS011;5028;50.974;4.968;2023-05-16T11:04:27;2.67;;;1.10;;
9974;SDS011;5028;50.974;4.968;2023-05-16T11:07:18;4.80;;;1.30;;
9974;SDS011;5028;50.974;4.968;2023-05-16T11:10:01;3.53;;;1.03;;
9974;SDS011;5028;50.974;4.968;2023-05-16T11:12:36;4.30;;;2.03;;
9974;SDS011;5028;50.974;4.968;2023-05-16T11:18:04;4.13;;;1.20;;
9974;SDS011;5028;50.974;4.968;2023-05-16T11:20:36;5.80;;;1.30;;
9974;SDS011;5028;50.974;4.968;2023-05-16T11:23:21;4.30;;;1.27;;
9974;SDS011;5028;50.974;4.968;2023-05-16T11:25:52;3.90;;;1.30;;
9974;SDS011;5028;50.974;4.968;2023-05-16T11:28:23;3.77;;;1.10;;
9974;SDS011;5028;50.974;4.968;2023-05-16T11:30:54;2.00;;;1.00;;
9974;SDS011;5028;50.974;4.968;2023-05-16T11:33:25;4.07;;;1.30;;
9974;SDS011;5028;50.974;4.968;2023-05-16T11:36:02;2.20;;;1.33;;
9974;SDS011;5028;50.974;4.968;2023-05-16T11:38:43;2.67;;;1.10;;
9974;SDS011;5028;50.974;4.968;2023-05-16T11:41:12;4.13;;;1.20;;
9974;SDS011;5028;50.974;4.968;2023-05-16T11:43:44;3.10;;;1.30;;
9974;SDS011;5028;50.974;4.968;2023-05-16T11:46:13;4.53;;;1.50;;
9974;SDS011;5028;50.974;4.968;2023-05-16T11:48:43;3.03;;;1.33;;
9974;SDS011;5028;50.974;4.968;2023-05-16T11:51:13;2.93;;;1.40;;
9974;SDS011;5028;50.974;4.968;2023-05-16T11:53:47;3.70;;;1.30;;
9974;SDS011;5028;50.974;4.968;2023-05-16T11:56:16;2.90;;;1.37;;
9974;SDS011;5028;50.974;4.968;2023-05-16T11:58:45;3.47;;;1.40;;
9974;SDS011;5028;50.974;4.968;2023-05-16T12:01:16;3.23;;;1.20;;
9974;SDS011;5028;50.974;4.968;2023-05-16T12:03:52;3.07;;;1.13;;
9974;SDS011;5028;50.974;4.968;2023-05-16T12:06:22;3.43;;;1.20;;
9974;SDS011;5028;50.974;4.968;2023-05-16T12:08:53;4.77;;;1.40;;
9974;SDS011;5028;50.974;4.968;2023-05-16T12:11:22;3.47;;;1.60;;
9974;SDS011;5028;50.974;4.968;2023-05-16T12:13:51;2.57;;;1.30;;
9974;SDS011;5028;50.974;4.968;2023-05-16T12:16:20;3.90;;;1.20;;
9974;SDS011;5028;50.974;4.968;2023-05-16T12:18:49;4.07;;;1.63;;
9974;SDS011;5028;50.974;4.968;2023-05-16T12:21:18;7.10;;;2.60;;
9974;SDS011;5028;50.974;4.968;2023-05-16T12:23:47;1.90;;;1.10;;
9974;SDS011;5028;50.974;4.968;2023-05-16T12:26:23;3.77;;;1.30;;
9974;SDS011;5028;50.974;4.968;2023-05-16T12:28:56;1.97;;;1.23;;
9974;SDS011;5028;50.974;4.968;2023-05-16T12:31:26;3.10;;;1.50;;
9974;SDS011;5028;50.974;4.968;2023-05-16T12:33:58;3.73;;;1.63;;
9974;SDS011;5028;50.974;4.968;2023-05-16T12:36:30;4.13;;;1.70;;
9974;SDS011;5028;50.974;4.968;2023-05-16T12:39:00;3.17;;;1.57;;
9974;SDS011;5028;50.974;4.968;2023-05-16T12:41:32;2.63;;;1.00;;
9974;SDS011;5028;50.974;4.968;2023-05-16T12:44:11;5.30;;;1.47;;
9974;SDS011;5028;50.974;4.968;2023-05-16T12:46:43;3.80;;;1.73;;
9974;SDS011;5028;50.974;4.968;2023-05-16T12:49:12;3.00;;;1.10;;
9974;SDS011;5028;50.974;4.968;2023-05-16T12:51:47;5.67;;;1.60;;
9974;SDS011;5028;50.974;4.968;2023-05-16T12:54:18;4.57;;;1.87;;
9974;SDS011;5028;50.974;4.968;2023-05-16T12:56:50;3.47;;;1.47;;
9974;SDS011;5028;50.974;4.968;2023-05-16T12:59:18;3.20;;;1.10;;
9974;SDS011;5028;50.974;4.968;2023-05-16T13:01:47;4.70;;;1.37;;
9974;SDS011;5028;50.974;4.968;2023-05-16T13:04:16;4.03;;;1.27;;
9974;SDS011;5028;50.974;4.968;2023-05-16T13:06:45;2.67;;;1.23;;
9974;SDS011;5028;50.974;4.968;2023-05-16T13:09:24;3.10;;;1.40;;
9974;SDS011;5028;50.974;4.968;2023-05-16T13:12:00;4.43;;;1.50;;
9974;SDS011;5028;50.974;4.968;2023-05-16T13:14:29;4.57;;;2.07;;
9974;SDS011;5028;50.974;4.968;2023-05-16T13:16:58;4.20;;;1.50;;
9974;SDS011;5028;50.974;4.968;2023-05-16T13:19:26;2.53;;;1.13;;
9974;SDS011;5028;50.974;4.968;2023-05-16T13:21:57;4.57;;;1.33;;
9974;SDS011;5028;50.974;4.968;2023-05-16T13:24:26;3.80;;;1.30;;
9974;SDS011;5028;50.974;4.968;2023-05-16T13:26:54;4.83;;;1.50;;
9974;SDS011;5028;50.974;4.968;2023-05-16T13:29:26;4.53;;;1.67;;
9974;SDS011;5028;50.974;4.968;2023-05-16T13:31:55;3.03;;;1.20;;
9974;SDS011;5028;50.974;4.968;2023-05-16T13:34:24;3.73;;;1.63;;
9974;SDS011;5028;50.974;4.968;2023-05-16T13:36:53;4.47;;;1.67;;
9974;SDS011;5028;50.974;4.968;2023-05-16T13:39:21;4.23;;;1.40;;
9974;SDS011;5028;50.974;4.968;2023-05-16T13:41:50;3.23;;;1.33;;
9974;SDS011;5028;50.974;4.968;2023-05-16T13:44:19;8.10;;;1.87;;
9974;SDS011;5028;50.974;4.968;2023-05-16T13:46:50;5.67;;;1.53;;
9974;SDS011;5028;50.974;4.968;2023-05-16T13:49:19;4.27;;;1.43;;
9974;SDS011;5028;50.974;4.968;2023-05-16T13:51:48;8.83;;;2.63;;
9974;SDS011;5028;50.974;4.968;2023-05-16T13:54:17;3.17;;;1.30;;
9974;SDS011;5028;50.974;4.968;2023-05-16T13:56:47;3.37;;;1.40;;
9974;SDS011;5028;50.974;4.968;2023-05-16T13:59:16;5.53;;;1.90;;
9974;SDS011;5028;50.974;4.968;2023-05-16T14:02:07;3.63;;;1.47;;
9974;SDS011;5028;50.974;4.968;2023-05-16T14:04:36;4.07;;;1.70;;
9974;SDS011;5028;50.974;4.968;2023-05-16T14:07:05;4.10;;;1.27;;
9974;SDS011;5028;50.974;4.968;2023-05-16T14:09:34;4.73;;;1.47;;
9974;SDS011;5028;50.974;4.968;2023-05-16T14:12:05;4.47;;;1.40;;
9974;SDS011;5028;50.974;4.968;2023-05-16T14:14:35;6.00;;;1.67;;
9974;SDS011;5028;50.974;4.968;2023-05-16T14:17:04;3.10;;;1.27;;
9974;SDS011;5028;50.974;4.968;2023-05-16T14:19:34;3.07;;;1.20;;
9974;SDS011;5028;50.974;4.968;2023-05-16T14:22:03;3.97;;;1.60;;
9974;SDS011;5028;50.974;4.968;2023-05-16T14:24:32;3.80;;;1.60;;
9974;SDS011;5028;50.974;4.968;2023-05-16T14:27:00;4.93;;;1.90;;
9974;SDS011;5028;50.974;4.968;2023-05-16T14:29:29;3.63;;;1.40;;
9974;SDS011;5028;50.974;4.968;2023-05-16T14:31:58;3.37;;;1.30;;
9974;SDS011;5028;50.974;4.968;2023-05-16T14:34:27;2.57;;;1.20;;
9974;SDS011;5028;50.974;4.968;2023-05-16T14:36:57;3.60;;;1.80;;
9974;SDS011;5028;50.974;4.968;2023-05-16T14:39:26;4.10;;;1.43;;
9974;SDS011;5028;50.974;4.968;2023-05-16T14:41:55;4.77;;;1.50;;
9974;SDS011;5028;50.974;4.968;2023-05-16T14:44:24;2.00;;;1.10;;
9974;SDS011;5028;50.974;4.968;2023-05-16T14:46:52;3.87;;;1.30;;
9974;SDS011;5028;50.974;4.968;2023-05-16T14:49:21;5.00;;;1.47;;
9974;SDS011;5028;50.974;4.968;2023-05-16T14:51:50;4.60;;;1.33;;
9974;SDS011;5028;50.974;4.968;2023-05-16T14:54:21;6.73;;;1.60;;
9974;SDS011;5028;50.974;4.968;2023-05-16T14:56:49;3.80;;;1.57;;
9974;SDS011;5028;50.974;4.968;2023-05-16T14:59:18;4.13;;;1.73;;
9974;SDS011;5028;50.974;4.968;2023-05-16T15:01:47;4.53;;;1.80;;
9974;SDS011;5028;50.974;4.968;2023-05-16T15:04:16;6.67;;;1.90;;
9974;SDS011;5028;50.974;4.968;2023-05-16T15:06:45;3.47;;;1.40;;
9974;SDS011;5028;50.974;4.968;2023-05-16T15:09:13;5.40;;;1.77;;
9974;SDS011;5028;50.974;4.968;2023-05-16T15:11:44;3.27;;;1.20;;
9974;SDS011;5028;50.974;4.968;2023-05-16T15:14:13;2.20;;;1.00;;
9974;SDS011;5028;50.974;4.968;2023-05-16T15:16:42;4.70;;;1.50;;
9974;SDS011;5028;50.974;4.968;2023-05-16T15:19:12;4.50;;;1.40;;
9974;SDS011;5028;50.974;4.968;2023-05-16T15:21:42;5.30;;;1.40;;
9974;SDS011;5028;50.974;4.968;2023-05-16T15:24:11;4.10;;;1.30;;
9974;SDS011;5028;50.974;4.968;2023-05-16T15:26:40;5.23;;;1.37;;
9974;SDS011;5028;50.974;4.968;2023-05-16T15:29:11;3.53;;;1.43;;
9974;SDS011;5028;50.974;4.968;2023-05-16T15:31:40;2.50;;;1.17;;